Time;durP1;ratioP1;P1;durP2;ratioP2;P2;SDS_P1;SDS_P2;PMS_P1;PMS_P2;Temp;Humidity;BMP_temperature;BMP_pressure;BME280_temperature;BME280_humidity;BME280_pressure;Samples;Min_cycle;Max_cycle;Signal;HPM_P1;HPM_P2
2022/08/04 00:01:07;;;;;;;13.65;5.93;;;;;;;22.28;64.47;100402.69;5087242;28;20036;-66
2022/08/04 00:03:48;;;;;;;15.02;6.32;;;;;;;22.25;64.45;100409.41;5086872;28;20769;-66
2022/08/04 00:06:32;;;;;;;16.92;6.53;;;;;;;22.27;65.30;100414.66;5086465;28;20098;-67
2022/08/04 00:09:06;;;;;;;7.68;5.53;;;;;;;22.27;64.91;100411.94;5087130;28;20077;-67
2022/08/04 00:11:32;;;;;;;14.40;6.40;;;;;;;22.14;65.43;100406.44;5086774;28;20193;-67
2022/08/04 00:14:04;;;;;;;9.52;5.80;;;;;;;22.22;64.71;100404.34;5080147;28;20107;-67
2022/08/04 00:16:35;;;;;;;11.30;5.13;;;;;;;22.19;64.02;100406.66;5066217;28;20028;-67
2022/08/04 00:19:04;;;;;;;12.02;5.57;;;;;;;22.06;63.90;100385.59;5086288;28;20135;-67
2022/08/04 00:21:35;;;;;;;13.05;5.80;;;;;;;22.14;63.76;100399.09;5086453;28;20036;-66
2022/08/04 00:24:01;;;;;;;11.73;5.53;;;;;;;22.11;64.32;100398.66;5086899;28;20027;-66
2022/08/04 00:26:27;;;;;;;14.50;5.60;;;;;;;22.10;64.30;100400.56;5078442;28;20085;-66
2022/08/04 00:28:53;;;;;;;14.13;6.20;;;;;;;22.13;64.78;100410.22;5066765;28;20028;-65
2022/08/04 00:31:21;;;;;;;8.20;5.35;;;;;;;22.05;64.65;100396.75;5051208;28;20072;-66
2022/08/04 00:33:48;;;;;;;7.05;5.43;;;;;;;22.12;64.69;100405.81;5066754;28;20474;-66
2022/08/04 00:36:15;;;;;;;9.82;5.50;;;;;;;22.09;64.51;100407.06;5066374;28;20725;-66
2022/08/04 00:38:42;;;;;;;10.73;5.30;;;;;;;22.09;64.82;100409.78;5066444;28;20051;-67
2022/08/04 00:41:37;;;;;;;12.15;4.95;;;;;;;22.07;64.68;100416.50;5048138;28;20035;-67
2022/08/04 00:44:12;;;;;;;12.73;5.40;;;;;;;22.01;64.64;100415.44;5057849;28;20052;-67
2022/08/04 00:47:17;;;;;;;14.85;5.65;;;;;;;21.97;64.55;100419.66;5066065;28;20098;-67
2022/08/04 00:50:11;;;;;;;10.55;6.15;;;;;;;21.90;64.20;100423.41;5065881;28;20037;-67
2022/08/04 00:52:45;;;;;;;10.60;5.50;;;;;;;21.90;64.02;100424.22;5063702;28;20521;-67
2022/08/04 00:55:25;;;;;;;10.02;5.32;;;;;;;21.87;63.65;100418.34;5066688;28;20507;-67
2022/08/04 00:58:33;;;;;;;9.38;5.10;;;;;;;21.85;63.29;100429.47;5070455;28;20098;-66
2022/08/04 01:01:05;;;;;;;6.93;4.80;;;;;;;21.78;63.21;100412.22;5070170;28;20466;-67
2022/08/04 01:03:41;;;;;;;9.95;5.05;;;;;;;21.81;62.88;100424.63;5069866;28;20029;-67
2022/08/04 01:06:28;;;;;;;8.52;5.30;;;;;;;21.86;62.95;100433.88;5069818;28;20055;-67
2022/08/04 01:09:02;;;;;;;7.97;5.13;;;;;;;21.87;62.88;100437.47;5070463;28;20085;-67
2022/08/04 01:11:57;;;;;;;5.70;4.60;;;;;;;21.86;62.96;100427.59;5085863;28;20107;-67
2022/08/04 01:14:47;;;;;;;7.30;5.00;;;;;;;21.85;63.70;100424.00;5065453;28;20405;-66
2022/08/04 01:17:15;;;;;;;7.78;5.30;;;;;;;21.83;64.12;100433.47;5079683;28;20482;-67
2022/08/04 01:20:06;;;;;;;8.50;4.97;;;;;;;21.80;64.27;100420.22;5073067;28;20028;-66
2022/08/04 01:22:31;;;;;;;7.60;5.18;;;;;;;21.77;64.61;100423.34;5081295;28;20035;-66
2022/08/04 01:25:35;;;;;;;8.00;5.03;;;;;;;21.74;64.25;100423.75;5090156;28;20032;-66
2022/08/04 01:28:06;;;;;;;7.13;5.00;;;;;;;21.73;64.15;100420.19;5089894;28;20024;-66
2022/08/04 01:30:32;;;;;;;9.50;5.35;;;;;;;21.73;63.96;100427.53;5089831;28;20446;-66
2022/08/04 01:33:08;;;;;;;6.18;4.75;;;;;;;21.62;63.85;100408.97;5081466;28;20032;-66
2022/08/04 01:35:55;;;;;;;6.80;5.00;;;;;;;21.72;63.77;100420.34;5069359;28;20032;-67
2022/08/04 01:38:35;;;;;;;8.35;5.43;;;;;;;21.63;63.75;100416.09;5069402;28;20093;-67
2022/08/04 01:41:07;;;;;;;6.35;4.50;;;;;;;21.69;63.75;100423.47;5069751;28;20035;-67
2022/08/04 01:43:42;;;;;;;8.05;4.90;;;;;;;21.70;63.77;100419.72;5066924;28;20036;-66
2022/08/04 01:46:12;;;;;;;8.57;5.38;;;;;;;21.64;64.02;100410.44;5069555;28;20071;-66
2022/08/04 01:48:39;;;;;;;6.68;4.93;;;;;;;21.67;64.04;100420.94;5082016;28;20024;-66
2022/08/04 01:51:07;;;;;;;6.82;5.25;;;;;;;21.66;64.11;100418.44;5089442;28;20119;-65
2022/08/04 01:53:37;;;;;;;6.70;5.30;;;;;;;21.55;64.42;100403.50;5089366;28;20027;-66
2022/08/04 01:56:05;;;;;;;6.13;4.65;;;;;;;21.65;64.20;100423.06;5070142;28;20035;-68
2022/08/04 01:58:32;;;;;;;6.72;5.40;;;;;;;21.65;64.21;100427.66;5079676;28;20036;-67
2022/08/04 02:01:02;;;;;;;5.57;4.20;;;;;;;21.65;64.20;100422.22;5069602;28;20039;-67
2022/08/04 02:03:28;;;;;;;5.63;4.70;;;;;;;21.64;64.22;100413.16;5069044;28;20059;-67
2022/08/04 02:06:09;;;;;;;7.00;5.00;;;;;;;21.64;64.16;100426.81;5104611;28;20062;-67
2022/08/04 02:08:50;;;;;;;7.20;4.50;;;;;;;21.64;64.15;100420.53;5078657;28;20040;-68
2022/08/04 02:11:20;;;;;;;7.07;4.65;;;;;;;21.62;64.50;100420.75;5074587;28;20035;-68
2022/08/04 02:14:41;;;;;;;5.68;4.78;;;;;;;21.61;64.13;100423.66;5072272;28;20043;-67
2022/08/04 02:17:11;;;;;;;10.43;5.82;;;;;;;21.55;64.54;100408.94;5071247;28;20107;-67
2022/08/04 02:20:07;;;;;;;5.35;4.70;;;;;;;21.54;64.72;100414.63;5068129;28;20037;-65
2022/08/04 02:22:40;;;;;;;8.68;5.15;;;;;;;21.53;64.72;100421.94;5082889;28;20044;-66
2022/08/04 02:25:10;;;;;;;9.18;5.70;;;;;;;21.47;64.82;100416.47;5088976;28;20437;-67
2022/08/04 02:27:52;;;;;;;5.60;4.78;;;;;;;21.39;64.88;100402.97;5070461;28;20419;-67
2022/08/04 02:30:18;;;;;;;6.72;5.38;;;;;;;21.34;64.86;100400.84;5082160;28;20020;-67
2022/08/04 02:32:47;;;;;;;6.80;5.72;;;;;;;21.40;64.94;100410.13;5068598;28;20435;-67
2022/08/04 02:35:28;;;;;;;10.63;5.57;;;;;;;21.36;65.00;100406.97;5068628;28;20030;-67
2022/08/04 02:38:10;;;;;;;8.20;5.22;;;;;;;21.34;65.03;100416.38;5068860;28;20438;-67
2022/08/04 02:40:40;;;;;;;6.40;5.38;;;;;;;21.39;64.86;100416.63;5068485;28;20114;-67
2022/08/04 02:43:08;;;;;;;6.22;5.57;;;;;;;21.39;64.85;100413.91;5068612;28;20036;-66
2022/08/04 02:45:36;;;;;;;7.00;5.53;;;;;;;21.24;64.74;100389.47;5083503;28;20043;-66
2022/08/04 02:48:03;;;;;;;9.20;5.55;;;;;;;21.38;64.79;100409.50;5088696;28;20051;-67
2022/08/04 02:50:33;;;;;;;8.63;5.72;;;;;;;21.39;64.67;100405.72;5087902;28;20513;-67
2022/08/04 02:53:01;;;;;;;8.90;5.72;;;;;;;21.38;64.63;100404.03;5068438;28;20035;-67
2022/08/04 02:55:29;;;;;;;6.55;5.10;;;;;;;21.38;64.64;100402.13;5068160;28;20493;-64
2022/08/04 02:57:56;;;;;;;6.40;5.57;;;;;;;21.37;64.56;100405.06;5068312;28;20032;-66
2022/08/04 03:00:22;;;;;;;7.30;5.43;;;;;;;21.25;64.76;100391.13;5087749;28;20108;-66
2022/08/04 03:03:03;;;;;;;7.78;5.03;;;;;;;21.36;64.62;100409.69;5088470;28;20039;-68
2022/08/04 03:05:59;;;;;;;5.85;5.18;;;;;;;21.35;64.84;100423.53;5075907;28;20043;-66
2022/08/04 03:09:05;;;;;;;9.38;5.28;;;;;;;21.34;65.03;100419.09;5051257;28;20128;-67
2022/08/04 03:11:52;;;;;;;9.07;5.80;;;;;;;21.33;65.01;100423.72;5066472;28;20036;-67
2022/08/04 03:14:52;;;;;;;6.47;5.47;;;;;;;21.31;65.06;100430.44;5069136;28;20031;-67
2022/08/04 03:17:35;;;;;;;5.80;5.20;;;;;;;21.29;65.41;100425.19;5046013;28;20040;-67
2022/08/04 03:20:27;;;;;;;8.80;5.13;;;;;;;21.25;65.81;100423.06;5069928;28;20020;-66
2022/08/04 03:23:13;;;;;;;10.10;5.55;;;;;;;21.22;66.10;100423.47;5067306;28;20082;-67
2022/08/04 03:26:09;;;;;;;6.85;5.10;;;;;;;21.20;66.12;100425.53;5066311;28;20954;-66
2022/08/04 03:28:53;;;;;;;9.18;5.40;;;;;;;21.18;66.36;100427.63;5067615;28;20114;-67
2022/08/04 03:31:33;;;;;;;6.38;5.43;;;;;;;21.15;66.50;100423.41;5065785;28;20067;-65
2022/08/04 03:34:17;;;;;;;9.60;6.10;;;;;;;21.15;66.71;100422.56;5066366;28;20037;-65
2022/08/04 03:37:07;;;;;;;9.23;5.82;;;;;;;21.14;66.80;100420.88;5065655;28;20032;-66
2022/08/04 03:39:54;;;;;;;7.05;5.90;;;;;;;21.13;66.79;100427.38;5065055;28;20044;-66
2022/08/04 03:42:45;;;;;;;9.73;5.75;;;;;;;21.13;66.83;100430.09;5082376;28;20085;-66
2022/08/04 03:45:44;;;;;;;10.45;5.90;;;;;;;21.11;66.98;100427.56;5030431;28;20048;-67
2022/08/04 03:48:42;;;;;;;11.93;5.65;;;;;;;21.11;67.18;100427.56;5065459;28;20154;-67
2022/08/04 03:54:44;;;;;;;8.27;5.82;;;;;;;21.11;67.55;100433.03;5071920;28;20039;-65
2022/08/04 03:57:53;;;;;;;12.45;5.45;;;;;;;21.12;67.46;100434.72;5066056;28;20040;-66
2022/08/04 04:00:22;;;;;;;10.95;5.65;;;;;;;21.09;67.57;100429.66;5047554;28;20042;-66
2022/08/04 04:03:12;;;;;;;16.50;6.07;;;;;;;21.12;67.59;100431.97;5067038;28;20097;-67
2022/08/04 04:05:46;;;;;;;10.90;5.82;;;;;;;21.15;67.84;100438.94;5065059;28;20098;-66
2022/08/04 04:08:29;;;;;;;12.88;6.60;;;;;;;21.15;68.00;100439.78;5066886;28;20028;-67
2022/08/04 04:11:18;;;;;;;14.20;6.20;;;;;;;21.17;68.06;100439.56;5077802;28;20041;-66
2022/08/04 04:14:12;;;;;;;16.77;5.97;;;;;;;21.12;67.84;100417.53;5080264;28;20051;-66
2022/08/04 04:17:01;;;;;;;10.32;5.10;;;;;;;21.28;67.63;100442.59;5066569;28;20413;-67
2022/08/04 04:19:51;;;;;;;13.55;5.15;;;;;;;21.35;67.18;100443.47;5062715;28;20020;-67
2022/08/04 04:22:25;;;;;;;8.75;5.13;;;;;;;21.43;66.95;100437.00;5081755;28;20122;-66
2022/08/04 04:24:57;;;;;;;7.93;4.93;;;;;;;21.49;66.71;100442.50;5086981;28;20039;-67
2022/08/04 04:27:25;;;;;;;11.98;5.18;;;;;;;21.60;66.29;100439.19;5075729;28;20429;-67
2022/08/04 04:30:24;;;;;;;13.57;5.30;;;;;;;21.72;65.44;100442.19;5052549;28;20028;-67
2022/08/04 04:32:58;;;;;;;7.22;5.00;;;;;;;21.84;64.89;100446.91;5066622;28;20102;-66
2022/08/04 04:35:24;;;;;;;;;;;;;;;21.94;64.29;100446.53;5064753;28;20059;-66
2022/08/04 04:38:04;;;;;;;19.27;5.95;;;;;;;22.04;64.13;100452.44;5098446;28;19978;-66
2022/08/04 04:40:56;;;;;;;8.68;5.63;;;;;;;22.15;63.67;100451.81;5077001;28;20074;-67
2022/08/04 04:43:45;;;;;;;14.85;5.40;;;;;;;22.23;63.13;100440.72;5082381;28;20081;-66
2022/08/04 04:46:35;;;;;;;24.00;5.68;;;;;;;22.41;62.31;100448.34;5082103;28;20640;-66
2022/08/04 04:49:27;;;;;;;14.80;5.72;;;;;;;22.55;61.53;100459.13;5076727;28;20379;-67
2022/08/04 04:52:23;;;;;;;8.82;4.70;;;;;;;22.68;60.54;100448.19;5077882;28;20082;-66
2022/08/04 04:55:09;;;;;;;8.07;4.50;;;;;;;22.81;59.99;100448.19;5085505;28;20046;-66
2022/08/04 04:57:37;;;;;;;6.97;3.95;;;;;;;22.94;59.67;100448.19;5069998;28;20093;-67
2022/08/04 05:00:08;;;;;;;5.65;4.10;;;;;;;23.07;58.89;100450.06;5083799;28;20031;-66
2022/08/04 05:02:34;;;;;;;7.32;4.13;;;;;;;23.26;58.72;100457.44;5078108;28;20028;-67
2022/08/04 05:05:21;;;;;;;8.30;4.65;;;;;;;23.43;57.67;100459.53;5062021;28;20040;-68
2022/08/04 05:08:11;;;;;;;8.77;4.57;;;;;;;23.58;56.52;100454.66;5079112;28;20024;-67
2022/08/04 05:10:46;;;;;;;4.18;3.67;;;;;;;23.71;55.51;100460.09;5068642;28;20469;-67
2022/08/04 05:13:33;;;;;;;6.10;3.67;;;;;;;23.84;54.91;100464.66;5081526;28;20055;-67
2022/08/04 05:16:36;;;;;;;7.78;3.28;;;;;;;24.02;54.78;100462.91;5058973;28;20031;-67
2022/08/04 05:19:21;;;;;;;4.10;3.50;;;;;;;24.13;53.96;100467.72;5071043;28;20048;-67
2022/08/04 05:22:33;;;;;;;6.65;3.58;;;;;;;24.30;53.45;100466.16;5052170;28;20040;-67
2022/08/04 05:25:24;;;;;;;5.90;3.60;;;;;;;24.49;52.88;100461.59;5025671;28;20440;-67
2022/08/04 05:27:56;;;;;;;4.03;3.20;;;;;;;24.65;52.26;100473.97;5068602;28;20115;-67
2022/08/04 05:30:24;;;;;;;6.30;2.83;;;;;;;24.82;51.66;100480.63;5070279;28;20020;-65
2022/08/04 05:33:21;;;;;;;12.45;3.60;;;;;;;24.97;51.14;100473.72;5082098;28;20569;-65
2022/08/04 05:35:54;;;;;;;5.85;3.38;;;;;;;25.16;50.60;100469.97;5040667;28;20047;-65
2022/08/04 05:38:23;;;;;;;6.35;3.17;;;;;;;25.28;49.86;100465.41;5080293;28;20024;-65
2022/08/04 05:40:51;;;;;;;5.80;2.80;;;;;;;25.46;49.70;100472.88;5077178;28;20027;-65
2022/08/04 05:43:17;;;;;;;2.75;2.55;;;;;;;25.62;49.32;100477.75;5079708;28;20032;-66
2022/08/04 05:45:47;;;;;;;8.20;3.25;;;;;;;25.67;48.51;100469.69;5081280;28;20114;-67
2022/08/04 05:48:13;;;;;;;5.53;2.65;;;;;;;25.65;47.82;100456.19;5080188;28;20050;-67
2022/08/04 05:50:39;;;;;;;3.75;2.85;;;;;;;25.86;47.78;100479.63;5081107;28;20032;-67
2022/08/04 05:53:08;;;;;;;8.00;2.75;;;;;;;25.94;47.47;100465.53;5071609;28;20561;-66
2022/08/04 05:55:34;;;;;;;5.65;3.00;;;;;;;26.12;47.18;100482.88;5087310;28;20020;-66
2022/08/04 05:58:01;;;;;;;6.18;2.88;;;;;;;26.28;47.03;100473.19;5080123;28;20048;-66
2022/08/04 06:00:27;;;;;;;4.25;2.42;;;;;;;26.36;46.29;100470.09;5084619;28;20534;-66
2022/08/04 06:02:55;;;;;;;3.20;2.33;;;;;;;26.58;45.45;100482.25;5080164;28;20054;-66
2022/08/04 06:05:21;;;;;;;4.88;2.90;;;;;;;26.69;45.09;100486.16;5077491;28;20050;-66
2022/08/04 06:07:47;;;;;;;8.45;2.58;;;;;;;26.76;44.44;100484.97;5083790;28;20040;-66
2022/08/04 06:10:13;;;;;;;5.07;2.25;;;;;;;26.87;44.79;100484.16;5079424;28;20025;-66
2022/08/04 06:12:46;;;;;;;2.38;2.13;;;;;;;27.02;44.71;100481.78;5077075;28;20036;-67
2022/08/04 06:15:17;;;;;;;5.57;2.60;;;;;;;27.18;44.41;100481.06;5100468;28;20104;-67
2022/08/04 06:17:50;;;;;;;3.17;2.38;;;;;;;27.35;44.38;100492.28;5084412;28;20065;-66
2022/08/04 06:20:18;;;;;;;5.55;2.75;;;;;;;27.47;43.90;100482.91;5081228;28;20028;-67
2022/08/04 06:22:46;;;;;;;9.05;2.53;;;;;;;27.55;43.51;100484.47;5078455;28;20253;-66
2022/08/04 06:25:16;;;;;;;5.82;2.45;;;;;;;27.61;43.31;100478.84;5059503;28;20035;-67
2022/08/04 06:27:42;;;;;;;6.00;2.72;;;;;;;27.73;43.65;100485.16;5084218;28;20881;-67
2022/08/04 06:30:13;;;;;;;3.28;2.47;;;;;;;27.89;43.10;100486.41;5079302;28;20397;-67
2022/08/04 06:32:46;;;;;;;7.68;2.35;;;;;;;28.00;42.52;100486.38;5079333;28;20056;-66
2022/08/04 06:35:14;;;;;;;;;;;;;;;28.05;42.19;100482.88;5060963;28;20033;-66
2022/08/04 06:37:40;;;;;;;9.07;2.60;;;;;;;28.18;42.29;100488.94;5080980;28;19942;-67
2022/08/04 06:40:07;;;;;;;4.93;2.40;;;;;;;28.26;41.81;100496.84;5076879;28;20387;-67
2022/08/04 06:42:33;;;;;;;2.97;2.20;;;;;;;28.36;42.06;100487.91;5076590;28;20033;-67
2022/08/04 06:45:00;;;;;;;5.38;1.90;;;;;;;28.54;41.37;100493.28;5084780;28;20036;-67
2022/08/04 06:47:27;;;;;;;5.47;2.30;;;;;;;28.66;41.04;100484.94;5073727;28;20028;-67
2022/08/04 06:50:23;;;;;;;3.53;2.33;;;;;;;28.79;40.96;100481.88;5076917;28;20214;-67
2022/08/04 06:52:49;;;;;;;3.70;2.33;;;;;;;28.86;40.80;100469.56;5084267;28;20090;-66
2022/08/04 06:55:14;;;;;;;5.65;2.13;;;;;;;29.05;40.72;100487.59;5084964;28;20024;-66
2022/08/04 06:57:42;;;;;;;9.50;2.70;;;;;;;29.20;40.24;100487.84;5090596;28;20036;-65
2022/08/04 07:00:12;;;;;;;4.80;2.65;;;;;;;29.36;39.86;100487.00;5074505;28;20028;-67
2022/08/04 07:02:43;;;;;;;4.65;2.00;;;;;;;29.53;39.78;100487.00;5076754;28;20028;-67
2022/08/04 07:05:09;;;;;;;6.22;2.08;;;;;;;29.71;39.84;100489.47;5077872;28;20036;-67
2022/08/04 07:07:35;;;;;;;4.22;2.40;;;;;;;29.80;39.25;100483.28;5070337;28;20028;-68
2022/08/04 07:10:01;;;;;;;7.55;2.58;;;;;;;29.90;39.38;100496.41;5070152;28;20032;-68
2022/08/04 07:12:27;;;;;;;4.43;2.22;;;;;;;30.00;38.84;100488.22;5086370;28;20016;-66
2022/08/04 07:14:54;;;;;;;5.10;2.10;;;;;;;30.08;38.50;100479.50;5080364;28;20032;-67
2022/08/04 07:17:21;;;;;;;2.17;1.90;;;;;;;30.21;38.34;100498.50;5094829;28;20538;-66
2022/08/04 07:19:46;;;;;;;4.28;2.28;;;;;;;30.29;38.00;100484.19;5074319;28;20043;-67
2022/08/04 07:22:13;;;;;;;2.83;2.08;;;;;;;30.37;37.20;100494.81;5076792;28;20056;-67
2022/08/04 07:24:40;;;;;;;2.28;2.00;;;;;;;30.37;37.16;100478.22;5085399;28;20055;-67
2022/08/04 07:27:06;;;;;;;2.38;1.80;;;;;;;30.60;36.19;100495.34;5080337;28;20040;-67
2022/08/04 07:29:34;;;;;;;3.58;1.88;;;;;;;30.65;36.79;100489.03;5081491;28;20547;-68
2022/08/04 07:32:00;;;;;;;6.40;2.22;;;;;;;30.74;36.81;100494.94;5088810;28;20034;-68
2022/08/04 07:34:27;;;;;;;2.53;1.60;;;;;;;30.79;36.66;100493.09;5069636;28;20475;-65
2022/08/04 07:36:54;;;;;;;2.30;1.90;;;;;;;30.84;36.23;100495.03;5069452;28;20020;-65
2022/08/04 07:39:21;;;;;;;4.68;2.00;;;;;;;30.89;36.27;100497.88;5069723;28;20054;-65
2022/08/04 07:41:47;;;;;;;3.50;2.10;;;;;;;30.97;36.64;100491.84;5069599;28;20421;-65
2022/08/04 07:44:16;;;;;;;2.45;1.95;;;;;;;31.04;36.43;100492.50;5069500;28;20042;-66
2022/08/04 07:46:44;;;;;;;2.35;1.80;;;;;;;31.07;36.18;100487.22;5084651;28;20027;-67
2022/08/04 07:49:10;;;;;;;3.40;1.77;;;;;;;31.15;36.18;100491.47;5069299;28;20036;-65
2022/08/04 07:51:36;;;;;;;2.15;1.92;;;;;;;31.24;35.43;100478.78;5069291;28;20066;-67
2022/08/04 07:54:03;;;;;;;4.35;2.03;;;;;;;31.26;35.52;100484.88;5069268;28;20111;-66
2022/08/04 07:56:31;;;;;;;5.15;2.08;;;;;;;31.20;35.44;100470.16;5075121;28;20032;-66
2022/08/04 07:58:56;;;;;;;4.10;1.98;;;;;;;31.28;35.39;100475.25;5080888;28;20067;-66
2022/08/04 08:01:23;;;;;;;4.25;1.83;;;;;;;31.23;35.56;100475.16;5069191;28;20028;-67
2022/08/04 08:03:50;;;;;;;2.97;1.80;;;;;;;31.29;34.92;100476.91;5072077;28;20532;-67
2022/08/04 08:06:16;;;;;;;2.47;1.63;;;;;;;31.24;34.65;100454.66;5079913;28;20085;-66
2022/08/04 08:08:41;;;;;;;5.25;1.60;;;;;;;31.31;34.87;100474.72;5088905;28;20016;-66
2022/08/04 08:11:08;;;;;;;2.92;1.73;;;;;;;31.37;34.80;100470.84;5084356;28;20055;-66
2022/08/04 08:13:34;;;;;;;4.40;1.70;;;;;;;31.51;34.82;100479.56;5071633;28;20040;-66
2022/08/04 08:16:01;;;;;;;2.45;2.10;;;;;;;31.57;34.81;100479.34;5077782;28;20031;-66
2022/08/04 08:18:26;;;;;;;2.65;1.60;;;;;;;31.55;34.84;100477.91;5085518;28;20033;-68
2022/08/04 08:20:52;;;;;;;3.97;1.60;;;;;;;31.60;34.59;100476.00;5071787;28;20047;-68
2022/08/04 08:23:18;;;;;;;3.58;2.05;;;;;;;31.65;34.36;100476.03;5079227;28;20078;-68
2022/08/04 08:25:44;;;;;;;6.18;1.50;;;;;;;31.64;34.11;100468.00;5071980;28;20474;-68
2022/08/04 08:28:10;;;;;;;5.18;1.90;;;;;;;31.69;33.36;100468.84;5071725;28;20078;-69
2022/08/04 08:30:36;;;;;;;4.03;1.90;;;;;;;31.75;33.58;100473.31;5088819;28;20055;-67
2022/08/04 08:33:08;;;;;;;1.83;1.42;;;;;;;31.83;33.40;100483.97;5088890;28;20032;-66
2022/08/04 08:35:44;;;;;;;6.57;2.10;;;;;;;31.80;33.06;100476.19;5080770;28;20031;-66
2022/08/04 08:38:14;;;;;;;4.32;1.80;;;;;;;31.83;33.32;100475.63;5089054;28;20048;-66
2022/08/04 08:40:51;;;;;;;1.95;1.67;;;;;;;31.80;33.27;100465.06;5086701;28;20024;-66
2022/08/04 08:43:35;;;;;;;4.45;1.90;;;;;;;31.98;32.85;100474.88;5089113;28;20031;-67
2022/08/04 08:46:10;;;;;;;;;;;;;;;32.04;32.89;100471.84;5089693;28;20028;-68
2022/08/04 08:49:07;;;;;;;2.65;2.28;;;;;;;32.23;32.74;100475.81;5080701;28;19995;-68
2022/08/04 08:51:52;;;;;;;2.33;1.70;;;;;;;32.34;32.75;100477.53;5072569;28;20382;-67
2022/08/04 08:54:35;;;;;;;3.03;1.73;;;;;;;32.44;32.55;100477.56;5070253;28;20028;-67
2022/08/04 08:57:15;;;;;;;5.57;2.40;;;;;;;32.55;32.54;100470.94;5088547;28;20032;-66
2022/08/04 09:00:15;;;;;;;2.63;1.88;;;;;;;32.57;32.21;100477.03;5088568;28;20028;-67
2022/08/04 09:03:16;;;;;;;1.65;1.50;;;;;;;32.63;31.68;100479.81;5085924;28;20050;-66
2022/08/04 09:06:16;;;;;;;2.78;1.40;;;;;;;32.74;31.67;100467.59;5071008;28;20048;-66
2022/08/04 09:09:12;;;;;;;5.35;2.03;;;;;;;32.85;31.35;100463.78;5061923;28;20860;-66
2022/08/04 09:11:49;;;;;;;4.80;2.17;;;;;;;32.95;31.46;100458.22;5075853;28;20419;-66
2022/08/04 09:14:27;;;;;;;3.50;2.17;;;;;;;33.03;31.22;100463.22;5085686;28;20082;-65
2022/08/04 09:17:02;;;;;;;4.40;1.90;;;;;;;33.11;30.90;100471.00;5089079;28;20028;-67
2022/08/04 09:20:06;;;;;;;1.83;1.73;;;;;;;33.14;30.84;100462.94;5092639;28;20019;-66
2022/08/04 09:22:48;;;;;;;1.95;1.75;;;;;;;33.15;30.52;100467.41;5065596;28;20063;-66
2022/08/04 09:25:25;;;;;;;4.68;1.98;;;;;;;33.19;30.41;100467.66;5070192;28;20032;-66
2022/08/04 09:27:54;;;;;;;5.07;1.88;;;;;;;33.20;30.09;100456.25;5072277;28;20082;-67
2022/08/04 09:30:28;;;;;;;3.90;2.08;;;;;;;33.25;30.64;100469.31;5088148;28;20056;-67
2022/08/04 09:32:59;;;;;;;2.90;1.83;;;;;;;33.22;30.60;100465.16;5091734;28;20028;-67
2022/08/04 09:35:37;;;;;;;4.85;2.30;;;;;;;33.25;31.06;100470.16;5072713;28;20021;-67
2022/08/04 09:38:22;;;;;;;3.13;2.05;;;;;;;33.22;30.40;100454.03;5084946;28;20107;-67
2022/08/04 09:40:57;;;;;;;4.55;2.40;;;;;;;33.30;30.23;100467.38;5071199;28;20093;-67
2022/08/04 09:44:09;;;;;;;6.28;2.15;;;;;;;33.33;30.35;100460.44;5072282;28;20028;-66
2022/08/04 09:46:59;;;;;;;2.20;1.70;;;;;;;33.33;30.46;100466.81;5096466;28;20485;-66
2022/08/04 09:49:35;;;;;;;4.85;2.10;;;;;;;33.32;30.40;100458.75;5084696;28;20027;-66
2022/08/04 09:52:22;;;;;;;2.55;1.80;;;;;;;33.32;29.92;100448.47;5077811;28;20032;-67
2022/08/04 09:54:57;;;;;;;2.15;1.85;;;;;;;33.39;29.88;100451.81;5077066;28;20043;-67
2022/08/04 09:57:40;;;;;;;2.85;1.80;;;;;;;33.45;30.27;100442.34;5084089;28;20039;-67
2022/08/04 10:00:12;;;;;;;2.08;1.90;;;;;;;33.45;29.81;100431.22;5091605;28;20051;-66
2022/08/04 10:02:57;;;;;;;2.10;1.90;;;;;;;33.58;30.31;100444.56;5091447;28;20106;-67
2022/08/04 10:05:41;;;;;;;3.83;1.90;;;;;;;33.64;30.07;100437.00;5072745;28;20107;-66
2022/08/04 10:08:38;;;;;;;2.20;1.63;;;;;;;33.70;30.08;100449.81;5081964;28;20553;-66
2022/08/04 10:11:17;;;;;;;3.30;1.77;;;;;;;33.70;29.71;100442.28;5078839;28;20028;-67
2022/08/04 10:14:09;;;;;;;2.83;1.90;;;;;;;33.74;29.53;100432.25;5080806;28;20489;-67
2022/08/04 10:16:57;;;;;;;4.05;1.83;;;;;;;33.79;29.55;100429.44;5061917;28;20371;-67
2022/08/04 10:19:34;;;;;;;3.03;1.90;;;;;;;33.89;29.71;100421.09;5076701;28;20496;-68
2022/08/04 10:22:16;;;;;;;2.90;2.00;;;;;;;33.96;29.94;100424.41;5099261;28;20426;-67
2022/08/04 10:24:52;;;;;;;4.82;2.30;;;;;;;34.07;29.30;100419.59;5080448;28;20462;-67
2022/08/04 10:27:44;;;;;;;5.68;2.20;;;;;;;34.15;29.40;100407.88;5077419;28;20100;-66
2022/08/04 10:30:12;;;;;;;2.13;1.83;;;;;;;34.20;28.74;100411.47;5068777;28;20129;-66
2022/08/04 10:33:06;;;;;;;3.17;2.13;;;;;;;34.28;28.98;100401.69;5090775;28;20103;-66
2022/08/04 10:35:36;;;;;;;5.10;2.10;;;;;;;34.35;28.78;100396.66;5081701;28;20031;-67
2022/08/04 10:38:39;;;;;;;3.15;1.85;;;;;;;34.41;28.76;100398.28;5086072;28;20608;-66
2022/08/04 10:41:38;;;;;;;2.22;2.00;;;;;;;34.45;28.76;100393.78;5074681;28;20037;-67
2022/08/04 10:44:22;;;;;;;4.15;2.30;;;;;;;34.49;29.06;100392.91;5072204;28;20475;-67
2022/08/04 10:46:56;;;;;;;3.00;2.20;;;;;;;34.54;29.23;100394.84;5083421;28;20055;-66
2022/08/04 10:49:32;;;;;;;6.53;2.05;;;;;;;34.59;28.16;100392.84;5078190;28;20054;-67
2022/08/04 10:52:07;;;;;;;3.65;1.85;;;;;;;34.60;28.83;100382.53;5076749;28;20032;-67
2022/08/04 10:54:48;;;;;;;2.58;2.35;;;;;;;34.68;28.59;100390.25;5075886;28;20572;-67
2022/08/04 10:57:28;;;;;;;3.15;2.25;;;;;;;34.68;28.77;100389.44;5075965;28;20130;-67
2022/08/04 11:00:05;;;;;;;3.60;2.40;;;;;;;34.63;28.75;100385.56;5091199;28;20032;-67
2022/08/04 11:02:52;;;;;;;4.68;2.53;;;;;;;34.56;28.26;100376.69;5090889;28;20146;-67
2022/08/04 11:05:33;;;;;;;2.05;1.90;;;;;;;34.63;28.69;100390.31;5064972;28;20036;-67
2022/08/04 11:08:37;;;;;;;5.45;2.28;;;;;;;34.54;28.87;100380.91;5075644;28;20423;-67
2022/08/04 11:11:02;;;;;;;;;;;;;;;34.47;28.73;100385.97;5054967;28;20040;-66
2022/08/04 11:13:33;;;;;;;3.35;2.20;;;;;;;34.50;28.65;100385.41;5070119;28;20346;-65
2022/08/04 11:16:04;;;;;;;2.83;2.60;;;;;;;34.50;28.52;100380.66;5052170;28;20542;-67
2022/08/04 11:18:57;;;;;;;2.45;2.25;;;;;;;34.51;28.40;100373.13;5085487;28;20036;-67
2022/08/04 11:21:32;;;;;;;2.87;2.60;;;;;;;34.55;28.60;100374.19;5085848;28;20028;-67
2022/08/04 11:24:15;;;;;;;2.95;2.10;;;;;;;34.55;28.45;100369.47;5087341;28;20280;-67
2022/08/04 11:26:49;;;;;;;2.88;2.33;;;;;;;34.63;28.62;100375.53;5074954;28;20031;-67
2022/08/04 11:29:18;;;;;;;2.90;1.95;;;;;;;34.69;28.82;100363.22;5071859;28;20516;-68
2022/08/04 11:31:46;;;;;;;3.05;2.63;;;;;;;34.71;29.08;100372.97;5087414;28;20081;-67
2022/08/04 11:34:23;;;;;;;3.15;2.30;;;;;;;34.76;28.67;100370.16;5070062;28;20020;-68
2022/08/04 11:37:01;;;;;;;2.55;2.35;;;;;;;34.72;28.51;100355.09;5088278;28;20478;-67
2022/08/04 11:39:36;;;;;;;4.80;2.13;;;;;;;34.83;28.22;100361.44;5089584;28;20036;-67
2022/08/04 11:42:32;;;;;;;4.45;2.60;;;;;;;34.85;27.88;100364.81;5071698;28;20030;-67
2022/08/04 11:45:14;;;;;;;3.25;2.67;;;;;;;34.82;27.96;100362.56;5071131;28;20542;-66
2022/08/04 11:47:54;;;;;;;3.97;2.10;;;;;;;34.83;28.22;100355.84;5051629;28;20040;-67
2022/08/04 11:50:43;;;;;;;3.08;2.53;;;;;;;34.87;28.25;100360.59;5069388;28;20020;-66
2022/08/04 11:53:15;;;;;;;2.20;1.98;;;;;;;34.91;27.95;100341.31;5095484;28;20513;-66
2022/08/04 11:55:43;;;;;;;4.07;2.55;;;;;;;34.97;27.60;100343.75;5077882;28;20116;-67
2022/08/04 11:58:09;;;;;;;4.47;2.45;;;;;;;35.04;27.78;100330.28;5089626;28;20111;-67
2022/08/04 12:00:39;;;;;;;3.55;2.45;;;;;;;34.90;27.87;100329.34;5089918;28;20465;-68
2022/08/04 12:03:31;;;;;;;5.90;2.80;;;;;;;34.90;27.90;100336.84;5071588;28;20492;-67
2022/08/04 12:06:15;;;;;;;3.50;2.60;;;;;;;34.79;27.96;100333.31;5082511;28;20044;-67
2022/08/04 12:09:06;;;;;;;2.78;2.08;;;;;;;34.75;28.19;100334.19;5071249;28;20019;-67
2022/08/04 12:11:50;;;;;;;7.70;2.63;;;;;;;34.74;27.87;100322.19;5084993;28;20033;-67
2022/08/04 12:14:27;;;;;;;10.18;2.83;;;;;;;34.85;27.62;100322.97;5081479;28;20466;-67